General Vedia, Argentina
Current Conditions -  °F | °C
As of 10:00 AM on Wednesday 26 Nov 2014 (Local Time) from SARC Reporting Station
Few Clouds Few Clouds  
Wind Chill: 81°   Ceiling: Unl
Heat Index: 85°   Visibility: 6mi
Dew Point: 72°   Wind: 6mph
Humidity: 74%   Direction: 160°SSE
Pressure: 29.85"   Gusts: NA
Location:  26.93°S, 58.66°W
Report Text: SARC 261300Z 16005KT 110V230 9999 FEW02027/22 Q1011
Loading
Personal Weather Stations






























Interactive Weather Map New forecast layout! Learn more

10-Day Weather Forecast

Advertisements
Track Severe Weather on mobile